sensor_id;sensor_type;location;lat;lon;timestamp;P1;durP1;ratioP1;P2;durP2;ratioP2
54143;SDS011;40050;47.324;18.792;2023-06-10T00:01:41;15.15;;;5.62;;
54143;SDS011;40050;47.324;18.792;2023-06-10T00:03:32;8.86;;;5.23;;
54143;SDS011;40050;47.324;18.792;2023-06-10T00:05:33;9.93;;;5.33;;
54143;SDS011;40050;47.324;18.792;2023-06-10T00:07:35;12.95;;;6.01;;
54143;SDS011;40050;47.324;18.792;2023-06-10T00:09:36;13.22;;;5.72;;
54143;SDS011;40050;47.324;18.792;2023-06-10T00:11:37;16.77;;;6.11;;
54143;SDS011;40050;47.324;18.792;2023-06-10T00:13:43;9.68;;;5.53;;
54143;SDS011;40050;47.324;18.792;2023-06-10T00:15:41;10.75;;;5.92;;
54143;SDS011;40050;47.324;18.792;2023-06-10T00:17:42;13.06;;;6.21;;
54143;SDS011;40050;47.324;18.792;2023-06-10T00:19:43;10.31;;;5.92;;
54143;SDS011;40050;47.324;18.792;2023-06-10T00:21:44;11.90;;;6.11;;
54143;SDS011;40050;47.324;18.792;2023-06-10T00:23:45;13.86;;;6.40;;
54143;SDS011;40050;47.324;18.792;2023-06-10T00:25:46;13.15;;;6.40;;
54143;SDS011;40050;47.324;18.792;2023-06-10T00:27:47;11.11;;;5.92;;
54143;SDS011;40050;47.324;18.792;2023-06-10T00:29:48;12.45;;;5.82;;
54143;SDS011;40050;47.324;18.792;2023-06-10T00:31:49;13.42;;;6.50;;
54143;SDS011;40050;47.324;18.792;2023-06-10T00:33:50;12.44;;;6.31;;
54143;SDS011;40050;47.324;18.792;2023-06-10T00:35:51;11.02;;;6.01;;
54143;SDS011;40050;47.324;18.792;2023-06-10T00:37:52;13.42;;;6.11;;
54143;SDS011;40050;47.324;18.792;2023-06-10T00:39:53;11.20;;;6.01;;
54143;SDS011;40050;47.324;18.792;2023-06-10T00:41:54;11.81;;;6.11;;
54143;SDS011;40050;47.324;18.792;2023-06-10T00:43:55;16.07;;;6.01;;
54143;SDS011;40050;47.324;18.792;2023-06-10T00:45:55;11.09;;;5.91;;
54143;SDS011;40050;47.324;18.792;2023-06-10T00:47:57;14.28;;;6.20;;
54143;SDS011;40050;47.324;18.792;2023-06-10T00:49:58;10.46;;;6.01;;
54143;SDS011;40050;47.324;18.792;2023-06-10T00:51:59;9.94;;;5.91;;
54143;SDS011;40050;47.324;18.792;2023-06-10T00:54:00;11.44;;;5.82;;
54143;SDS011;40050;47.324;18.792;2023-06-10T00:56:01;10.82;;;6.01;;
54143;SDS011;40050;47.324;18.792;2023-06-10T00:58:03;15.59;;;6.49;;
54143;SDS011;40050;47.324;18.792;2023-06-10T01:00:04;11.61;;;6.20;;
54143;SDS011;40050;47.324;18.792;2023-06-10T01:02:04;7.72;;;5.91;;
54143;SDS011;40050;47.324;18.792;2023-06-10T01:04:05;10.37;;;5.72;;
54143;SDS011;40050;47.324;18.792;2023-06-10T01:06:18;10.45;;;5.13;;
54143;SDS011;40050;47.324;18.792;2023-06-10T01:08:25;8.86;;;4.65;;
54143;SDS011;40050;47.324;18.792;2023-06-10T01:10:50;9.50;;;4.27;;
54143;SDS011;40050;47.324;18.792;2023-06-10T01:13:00;9.61;;;4.47;;
54143;SDS011;40050;47.324;18.792;2023-06-10T01:14:51;11.85;;;5.15;;
54143;SDS011;40050;47.324;18.792;2023-06-10T01:16:52;11.49;;;4.66;;
54143;SDS011;40050;47.324;18.792;2023-06-10T01:18:53;12.27;;;5.24;;
54143;SDS011;40050;47.324;18.792;2023-06-10T01:20:55;12.09;;;4.46;;
54143;SDS011;40050;47.324;18.792;2023-06-10T01:22:56;11.55;;;4.85;;
54143;SDS011;40050;47.324;18.792;2023-06-10T01:24:58;11.98;;;4.94;;
54143;SDS011;40050;47.324;18.792;2023-06-10T01:27:05;9.84;;;5.04;;
54143;SDS011;40050;47.324;18.792;2023-06-10T01:29:21;13.82;;;5.81;;
54143;SDS011;40050;47.324;18.792;2023-06-10T01:31:38;10.09;;;5.52;;
54143;SDS011;40050;47.324;18.792;2023-06-10T01:33:33;10.36;;;4.84;;
54143;SDS011;40050;47.324;18.792;2023-06-10T01:35:33;8.24;;;5.14;;
54143;SDS011;40050;47.324;18.792;2023-06-10T01:37:35;11.53;;;5.04;;
54143;SDS011;40050;47.324;18.792;2023-06-10T01:39:35;11.35;;;5.33;;
54143;SDS011;40050;47.324;18.792;2023-06-10T01:41:37;10.46;;;5.52;;
54143;SDS011;40050;47.324;18.792;2023-06-10T01:43:38;12.31;;;5.52;;
54143;SDS011;40050;47.324;18.792;2023-06-10T01:45:39;14.51;;;5.62;;
54143;SDS011;40050;47.324;18.792;2023-06-10T01:47:40;12.47;;;5.52;;
54143;SDS011;40050;47.324;18.792;2023-06-10T01:49:41;10.95;;;5.61;;
54143;SDS011;40050;47.324;18.792;2023-06-10T01:51:42;10.69;;;6.48;;
54143;SDS011;40050;47.324;18.792;2023-06-10T01:53:43;12.18;;;5.71;;
54143;SDS011;40050;47.324;18.792;2023-06-10T01:55:44;14.64;;;5.90;;
54143;SDS011;40050;47.324;18.792;2023-06-10T01:57:45;16.92;;;6.67;;
54143;SDS011;40050;47.324;18.792;2023-06-10T01:59:46;12.33;;;6.09;;
54143;SDS011;40050;47.324;18.792;2023-06-10T02:01:46;11.35;;;5.70;;
54143;SDS011;40050;47.324;18.792;2023-06-10T02:03:47;10.92;;;5.99;;
54143;SDS011;40050;47.324;18.792;2023-06-10T02:05:48;10.13;;;5.99;;
54143;SDS011;40050;47.324;18.792;2023-06-10T02:07:49;11.09;;;5.89;;
54143;SDS011;40050;47.324;18.792;2023-06-10T02:09:50;10.30;;;6.47;;
54143;SDS011;40050;47.324;18.792;2023-06-10T02:11:51;10.73;;;6.57;;
54143;SDS011;40050;47.324;18.792;2023-06-10T02:13:52;12.59;;;6.19;;
54143;SDS011;40050;47.324;18.792;2023-06-10T02:15:53;14.18;;;6.57;;
54143;SDS011;40050;47.324;18.792;2023-06-10T02:17:54;10.65;;;5.99;;
54143;SDS011;40050;47.324;18.792;2023-06-10T02:19:57;9.68;;;6.28;;
54143;SDS011;40050;47.324;18.792;2023-06-10T02:21:56;11.96;;;6.38;;
54143;SDS011;40050;47.324;18.792;2023-06-10T02:23:56;11.60;;;5.99;;
54143;SDS011;40050;47.324;18.792;2023-06-10T02:25:57;11.86;;;6.47;;
54143;SDS011;40050;47.324;18.792;2023-06-10T02:27:58;11.77;;;6.37;;
54143;SDS011;40050;47.324;18.792;2023-06-10T02:29:59;10.01;;;6.37;;
54143;SDS011;40050;47.324;18.792;2023-06-10T02:32:01;12.11;;;6.76;;
54143;SDS011;40050;47.324;18.792;2023-06-10T02:34:01;9.56;;;6.27;;
54143;SDS011;40050;47.324;18.792;2023-06-10T02:36:05;11.93;;;5.69;;
54143;SDS011;40050;47.324;18.792;2023-06-10T02:38:06;13.27;;;5.41;;
54143;SDS011;40050;47.324;18.792;2023-06-10T02:40:10;10.29;;;5.89;;
54143;SDS011;40050;47.324;18.792;2023-06-10T02:42:08;11.80;;;5.41;;
54143;SDS011;40050;47.324;18.792;2023-06-10T02:44:08;8.02;;;4.74;;
54143;SDS011;40050;47.324;18.792;2023-06-10T02:46:09;5.74;;;4.35;;
54143;SDS011;40050;47.324;18.792;2023-06-10T02:48:10;5.65;;;3.87;;
54143;SDS011;40050;47.324;18.792;2023-06-10T02:50:11;6.53;;;3.68;;
54143;SDS011;40050;47.324;18.792;2023-06-10T02:52:12;7.06;;;3.68;;
54143;SDS011;40050;47.324;18.792;2023-06-10T02:54:13;7.95;;;3.68;;
54143;SDS011;40050;47.324;18.792;2023-06-10T02:56:16;8.65;;;4.06;;
54143;SDS011;40050;47.324;18.792;2023-06-10T02:58:15;13.06;;;4.64;;
54143;SDS011;40050;47.324;18.792;2023-06-10T03:00:16;10.32;;;5.13;;
54143;SDS011;40050;47.324;18.792;2023-06-10T03:02:17;9.06;;;5.12;;
54143;SDS011;40050;47.324;18.792;2023-06-10T03:04:18;10.18;;;5.11;;
54143;SDS011;40050;47.324;18.792;2023-06-10T03:06:19;9.73;;;5.40;;
54143;SDS011;40050;47.324;18.792;2023-06-10T03:08:20;11.92;;;5.21;;
54143;SDS011;40050;47.324;18.792;2023-06-10T03:10:21;13.58;;;5.69;;
54143;SDS011;40050;47.324;18.792;2023-06-10T03:12:22;11.90;;;5.69;;
54143;SDS011;40050;47.324;18.792;2023-06-10T03:14:24;7.96;;;5.49;;
54143;SDS011;40050;47.324;18.792;2023-06-10T03:16:24;7.16;;;5.59;;
54143;SDS011;40050;47.324;18.792;2023-06-10T03:18:25;12.19;;;5.77;;
54143;SDS011;40050;47.324;18.792;2023-06-10T03:20:26;9.04;;;5.48;;
54143;SDS011;40050;47.324;18.792;2023-06-10T03:22:38;10.76;;;5.76;;
54143;SDS011;40050;47.324;18.792;2023-06-10T03:24:39;12.20;;;5.56;;
54143;SDS011;40050;47.324;18.792;2023-06-10T03:26:40;9.42;;;6.04;;
54143;SDS011;40050;47.324;18.792;2023-06-10T03:28:41;13.72;;;6.32;;
54143;SDS011;40050;47.324;18.792;2023-06-10T03:30:43;11.55;;;6.42;;
54143;SDS011;40050;47.324;18.792;2023-06-10T03:32:44;11.91;;;6.23;;
54143;SDS011;40050;47.324;18.792;2023-06-10T03:34:45;13.01;;;6.13;;
54143;SDS011;40050;47.324;18.792;2023-06-10T03:36:46;12.12;;;5.93;;
54143;SDS011;40050;47.324;18.792;2023-06-10T03:38:47;11.60;;;5.93;;
54143;SDS011;40050;47.324;18.792;2023-06-10T03:40:48;10.74;;;5.93;;
54143;SDS011;40050;47.324;18.792;2023-06-10T03:42:49;12.36;;;6.21;;
54143;SDS011;40050;47.324;18.792;2023-06-10T03:44:49;11.77;;;6.60;;
54143;SDS011;40050;47.324;18.792;2023-06-10T03:46:50;13.73;;;6.79;;
54143;SDS011;40050;47.324;18.792;2023-06-10T03:48:51;13.21;;;6.69;;
54143;SDS011;40050;47.324;18.792;2023-06-10T03:50:52;10.71;;;6.40;;
54143;SDS011;40050;47.324;18.792;2023-06-10T03:52:53;10.87;;;5.82;;
54143;SDS011;40050;47.324;18.792;2023-06-10T03:54:54;11.82;;;6.11;;
54143;SDS011;40050;47.324;18.792;2023-06-10T03:56:55;8.39;;;6.20;;
54143;SDS011;40050;47.324;18.792;2023-06-10T03:58:56;8.63;;;6.20;;
54143;SDS011;40050;47.324;18.792;2023-06-10T04:00:57;11.34;;;6.96;;
54143;SDS011;40050;47.324;18.792;2023-06-10T04:02:57;10.15;;;6.58;;
54143;SDS011;40050;47.324;18.792;2023-06-10T04:04:58;7.75;;;6.19;;
54143;SDS011;40050;47.324;18.792;2023-06-10T04:07:00;11.66;;;6.38;;
54143;SDS011;40050;47.324;18.792;2023-06-10T04:09:01;9.36;;;6.38;;
54143;SDS011;40050;47.324;18.792;2023-06-10T04:11:01;12.33;;;6.38;;
54143;SDS011;40050;47.324;18.792;2023-06-10T04:13:02;10.70;;;7.13;;
54143;SDS011;40050;47.324;18.792;2023-06-10T04:15:04;11.37;;;6.65;;
54143;SDS011;40050;47.324;18.792;2023-06-10T04:17:05;12.13;;;7.32;;
54143;SDS011;40050;47.324;18.792;2023-06-10T04:19:05;11.40;;;7.40;;
54143;SDS011;40050;47.324;18.792;2023-06-10T04:21:06;12.57;;;7.96;;
54143;SDS011;40050;47.324;18.792;2023-06-10T04:23:07;10.43;;;7.86;;
54143;SDS011;40050;47.324;18.792;2023-06-10T04:25:08;11.74;;;8.41;;
54143;SDS011;40050;47.324;18.792;2023-06-10T04:27:09;12.82;;;8.79;;
54143;SDS011;40050;47.324;18.792;2023-06-10T04:29:10;12.24;;;8.95;;
54143;SDS011;40050;47.324;18.792;2023-06-10T04:31:11;12.60;;;9.21;;
54143;SDS011;40050;47.324;18.792;2023-06-10T04:33:12;12.63;;;8.72;;
54143;SDS011;40050;47.324;18.792;2023-06-10T04:35:13;14.68;;;8.15;;
54143;SDS011;40050;47.324;18.792;2023-06-10T04:37:14;11.88;;;7.97;;
54143;SDS011;40050;47.324;18.792;2023-06-10T04:39:15;10.73;;;7.97;;
54143;SDS011;40050;47.324;18.792;2023-06-10T04:41:16;11.79;;;8.53;;
54143;SDS011;40050;47.324;18.792;2023-06-10T04:43:16;12.45;;;8.34;;
54143;SDS011;40050;47.324;18.792;2023-06-10T04:45:17;14.54;;;8.79;;
54143;SDS011;40050;47.324;18.792;2023-06-10T04:47:18;12.22;;;8.78;;
54143;SDS011;40050;47.324;18.792;2023-06-10T04:49:19;12.22;;;8.88;;
54143;SDS011;40050;47.324;18.792;2023-06-10T04:51:20;12.61;;;8.40;;
54143;SDS011;40050;47.324;18.792;2023-06-10T04:53:22;10.23;;;8.40;;
54143;SDS011;40050;47.324;18.792;2023-06-10T04:55:22;12.44;;;8.12;;
54143;SDS011;40050;47.324;18.792;2023-06-10T04:57:23;12.89;;;8.63;;
54143;SDS011;40050;47.324;18.792;2023-06-10T04:59:24;10.35;;;8.08;;
54143;SDS011;40050;47.324;18.792;2023-06-10T05:01:25;12.08;;;8.38;;
54143;SDS011;40050;47.324;18.792;2023-06-10T05:03:26;14.60;;;8.11;;
54143;SDS011;40050;47.324;18.792;2023-06-10T05:05:27;11.95;;;8.21;;
54143;SDS011;40050;47.324;18.792;2023-06-10T05:07:28;11.74;;;8.13;;
54143;SDS011;40050;47.324;18.792;2023-06-10T05:09:29;8.94;;;7.96;;
54143;SDS011;40050;47.324;18.792;2023-06-10T05:11:30;10.15;;;7.81;;
54143;SDS011;40050;47.324;18.792;2023-06-10T05:13:31;10.49;;;7.94;;
54143;SDS011;40050;47.324;18.792;2023-06-10T05:15:32;9.71;;;7.30;;
54143;SDS011;40050;47.324;18.792;2023-06-10T05:17:33;12.81;;;7.60;;
54143;SDS011;40050;47.324;18.792;2023-06-10T05:19:34;11.85;;;8.08;;
54143;SDS011;40050;47.324;18.792;2023-06-10T05:21:34;10.42;;;7.98;;
54143;SDS011;40050;47.324;18.792;2023-06-10T05:23:35;10.01;;;7.50;;
54143;SDS011;40050;47.324;18.792;2023-06-10T05:25:37;12.58;;;7.51;;
54143;SDS011;40050;47.324;18.792;2023-06-10T05:27:40;9.09;;;7.38;;
54143;SDS011;40050;47.324;18.792;2023-06-10T05:29:39;9.97;;;7.31;;
54143;SDS011;40050;47.324;18.792;2023-06-10T05:31:42;9.41;;;6.81;;
54143;SDS011;40050;47.324;18.792;2023-06-10T05:33:41;9.99;;;7.31;;
54143;SDS011;40050;47.324;18.792;2023-06-10T05:35:42;8.15;;;7.03;;
54143;SDS011;40050;47.324;18.792;2023-06-10T05:37:44;10.29;;;6.76;;
54143;SDS011;40050;47.324;18.792;2023-06-10T05:39:45;7.77;;;6.66;;
54143;SDS011;40050;47.324;18.792;2023-06-10T05:41:49;7.80;;;6.67;;
54143;SDS011;40050;47.324;18.792;2023-06-10T05:43:46;9.31;;;6.68;;
54143;SDS011;40050;47.324;18.792;2023-06-10T05:45:47;7.21;;;6.10;;
54143;SDS011;40050;47.324;18.792;2023-06-10T05:47:48;7.47;;;5.60;;
54143;SDS011;40050;47.324;18.792;2023-06-10T05:49:49;7.84;;;5.80;;
54143;SDS011;40050;47.324;18.792;2023-06-10T05:51:50;8.59;;;6.20;;
54143;SDS011;40050;47.324;18.792;2023-06-10T05:53:51;6.91;;;6.29;;
54143;SDS011;40050;47.324;18.792;2023-06-10T05:55:52;8.03;;;6.47;;
54143;SDS011;40050;47.324;18.792;2023-06-10T05:57:59;9.82;;;6.75;;
54143;SDS011;40050;47.324;18.792;2023-06-10T05:59:54;13.18;;;8.02;;
54143;SDS011;40050;47.324;18.792;2023-06-10T06:02:02;9.91;;;7.53;;
54143;SDS011;40050;47.324;18.792;2023-06-10T06:04:03;10.73;;;7.80;;
54143;SDS011;40050;47.324;18.792;2023-06-10T06:06:04;11.10;;;7.83;;
54143;SDS011;40050;47.324;18.792;2023-06-10T06:08:05;11.17;;;8.02;;
54143;SDS011;40050;47.324;18.792;2023-06-10T06:10:06;9.65;;;7.44;;
54143;SDS011;40050;47.324;18.792;2023-06-10T06:12:07;9.21;;;7.25;;
54143;SDS011;40050;47.324;18.792;2023-06-10T06:14:08;10.12;;;8.13;;
54143;SDS011;40050;47.324;18.792;2023-06-10T06:16:09;10.50;;;7.15;;
54143;SDS011;40050;47.324;18.792;2023-06-10T06:18:10;11.89;;;7.45;;
54143;SDS011;40050;47.324;18.792;2023-06-10T06:20:11;9.43;;;7.35;;
54143;SDS011;40050;47.324;18.792;2023-06-10T06:22:12;10.60;;;7.74;;
54143;SDS011;40050;47.324;18.792;2023-06-10T06:24:13;9.45;;;7.24;;
54143;SDS011;40050;47.324;18.792;2023-06-10T06:26:14;7.83;;;7.24;;
54143;SDS011;40050;47.324;18.792;2023-06-10T06:28:18;10.13;;;7.45;;
54143;SDS011;40050;47.324;18.792;2023-06-10T06:30:19;10.34;;;7.45;;
54143;SDS011;40050;47.324;18.792;2023-06-10T06:32:20;11.43;;;7.74;;
54143;SDS011;40050;47.324;18.792;2023-06-10T06:34:21;9.13;;;7.54;;
54143;SDS011;40050;47.324;18.792;2023-06-10T06:36:21;10.35;;;6.47;;
54143;SDS011;40050;47.324;18.792;2023-06-10T06:38:25;7.76;;;5.90;;
54143;SDS011;40050;47.324;18.792;2023-06-10T06:40:26;7.38;;;5.90;;
54143;SDS011;40050;47.324;18.792;2023-06-10T06:42:26;9.42;;;6.29;;
54143;SDS011;40050;47.324;18.792;2023-06-10T06:44:27;8.13;;;6.00;;
54143;SDS011;40050;47.324;18.792;2023-06-10T06:46:28;7.98;;;5.12;;
54143;SDS011;40050;47.324;18.792;2023-06-10T06:48:29;6.68;;;5.42;;
54143;SDS011;40050;47.324;18.792;2023-06-10T06:50:30;7.68;;;5.12;;
54143;SDS011;40050;47.324;18.792;2023-06-10T06:52:31;6.13;;;5.32;;
54143;SDS011;40050;47.324;18.792;2023-06-10T06:54:32;6.68;;;4.83;;
54143;SDS011;40050;47.324;18.792;2023-06-10T06:56:33;7.63;;;4.93;;
54143;SDS011;40050;47.324;18.792;2023-06-10T06:58:34;5.24;;;4.84;;
54143;SDS011;40050;47.324;18.792;2023-06-10T07:00:35;6.08;;;4.34;;
54143;SDS011;40050;47.324;18.792;2023-06-10T07:02:36;5.58;;;4.44;;
54143;SDS011;40050;47.324;18.792;2023-06-10T07:04:37;9.66;;;4.34;;
54143;SDS011;40050;47.324;18.792;2023-06-10T07:06:38;7.98;;;4.04;;
54143;SDS011;40050;47.324;18.792;2023-06-10T07:08:39;4.58;;;3.65;;
54143;SDS011;40050;47.324;18.792;2023-06-10T07:10:40;5.19;;;3.86;;
54143;SDS011;40050;47.324;18.792;2023-06-10T07:12:41;4.84;;;3.97;;
54143;SDS011;40050;47.324;18.792;2023-06-10T07:13:59;7.56;;;4.06;;
54143;SDS011;40050;47.324;18.792;2023-06-10T07:16:00;5.74;;;3.48;;
54143;SDS011;40050;47.324;18.792;2023-06-10T07:18:01;3.74;;;3.08;;
54143;SDS011;40050;47.324;18.792;2023-06-10T07:20:02;8.24;;;3.78;;
54143;SDS011;40050;47.324;18.792;2023-06-10T07:22:04;4.23;;;3.68;;
54143;SDS011;40050;47.324;18.792;2023-06-10T07:24:05;7.50;;;4.28;;
54143;SDS011;40050;47.324;18.792;2023-06-10T07:26:06;4.60;;;3.88;;
54143;SDS011;40050;47.324;18.792;2023-06-10T07:28:07;6.03;;;3.67;;
54143;SDS011;40050;47.324;18.792;2023-06-10T07:30:08;4.49;;;3.47;;
54143;SDS011;40050;47.324;18.792;2023-06-10T07:32:08;4.69;;;3.67;;
54143;SDS011;40050;47.324;18.792;2023-06-10T07:34:09;4.42;;;3.58;;
54143;SDS011;40050;47.324;18.792;2023-06-10T07:36:10;4.89;;;3.78;;
54143;SDS011;40050;47.324;18.792;2023-06-10T07:38:11;4.83;;;3.18;;
54143;SDS011;40050;47.324;18.792;2023-06-10T07:40:12;3.87;;;3.39;;
54143;SDS011;40050;47.324;18.792;2023-06-10T07:42:13;3.88;;;3.29;;
54143;SDS011;40050;47.324;18.792;2023-06-10T07:44:14;5.91;;;3.39;;
54143;SDS011;40050;47.324;18.792;2023-06-10T07:46:15;4.17;;;3.39;;
54143;SDS011;40050;47.324;18.792;2023-06-10T07:48:25;3.86;;;3.28;;
54143;SDS011;40050;47.324;18.792;2023-06-10T07:50:17;4.93;;;3.38;;
54143;SDS011;40050;47.324;18.792;2023-06-10T07:52:18;5.04;;;3.29;;
54143;SDS011;40050;47.324;18.792;2023-06-10T07:54:19;4.75;;;3.19;;
54143;SDS011;40050;47.324;18.792;2023-06-10T07:56:20;3.40;;;2.99;;
54143;SDS011;40050;47.324;18.792;2023-06-10T07:58:21;4.19;;;2.69;;
54143;SDS011;40050;47.324;18.792;2023-06-10T08:00:21;3.61;;;2.89;;
54143;SDS011;40050;47.324;18.792;2023-06-10T08:02:22;4.10;;;2.99;;
54143;SDS011;40050;47.324;18.792;2023-06-10T08:04:23;2.83;;;2.59;;
54143;SDS011;40050;47.324;18.792;2023-06-10T08:06:24;5.49;;;2.69;;
54143;SDS011;40050;47.324;18.792;2023-06-10T08:08:27;5.58;;;2.79;;
54143;SDS011;40050;47.324;18.792;2023-06-10T08:10:30;5.31;;;3.29;;
54143;SDS011;40050;47.324;18.792;2023-06-10T08:12:32;4.62;;;3.00;;
54143;SDS011;40050;47.324;18.792;2023-06-10T08:14:32;4.62;;;3.09;;
54143;SDS011;40050;47.324;18.792;2023-06-10T08:16:33;4.90;;;3.39;;
54143;SDS011;40050;47.324;18.792;2023-06-10T08:18:34;5.59;;;3.49;;
54143;SDS011;40050;47.324;18.792;2023-06-10T08:20:36;7.46;;;2.99;;
54143;SDS011;40050;47.324;18.792;2023-06-10T08:22:37;3.93;;;3.00;;
54143;SDS011;40050;47.324;18.792;2023-06-10T08:24:38;3.64;;;3.30;;
54143;SDS011;40050;47.324;18.792;2023-06-10T08:26:39;3.54;;;3.10;;
54143;SDS011;40050;47.324;18.792;2023-06-10T08:28:40;5.70;;;3.39;;
54143;SDS011;40050;47.324;18.792;2023-06-10T08:30:41;5.32;;;3.10;;
54143;SDS011;40050;47.324;18.792;2023-06-10T08:32:42;3.83;;;2.99;;
54143;SDS011;40050;47.324;18.792;2023-06-10T08:34:43;4.43;;;3.20;;
54143;SDS011;40050;47.324;18.792;2023-06-10T08:36:44;3.84;;;3.20;;
54143;SDS011;40050;47.324;18.792;2023-06-10T08:38:45;5.61;;;3.20;;
54143;SDS011;40050;47.324;18.792;2023-06-10T08:40:46;4.14;;;3.20;;
54143;SDS011;40050;47.324;18.792;2023-06-10T08:42:58;7.19;;;3.40;;
54143;SDS011;40050;47.324;18.792;2023-06-10T08:44:59;6.89;;;3.30;;
54143;SDS011;40050;47.324;18.792;2023-06-10T08:47:02;4.13;;;3.49;;
54143;SDS011;40050;47.324;18.792;2023-06-10T08:49:08;3.74;;;3.30;;
54143;SDS011;40050;47.324;18.792;2023-06-10T08:51:07;3.94;;;3.59;;
54143;SDS011;40050;47.324;18.792;2023-06-10T08:53:08;5.42;;;3.20;;
54143;SDS011;40050;47.324;18.792;2023-06-10T08:55:19;3.94;;;3.30;;
54143;SDS011;40050;47.324;18.792;2023-06-10T08:57:11;5.13;;;3.30;;
54143;SDS011;40050;47.324;18.792;2023-06-10T08:59:12;5.03;;;3.30;;
54143;SDS011;40050;47.324;18.792;2023-06-10T09:01:13;3.75;;;3.30;;
54143;SDS011;40050;47.324;18.792;2023-06-10T09:03:15;5.04;;;3.90;;
54143;SDS011;40050;47.324;18.792;2023-06-10T09:05:17;5.43;;;3.60;;
54143;SDS011;40050;47.324;18.792;2023-06-10T09:07:18;5.13;;;3.10;;
54143;SDS011;40050;47.324;18.792;2023-06-10T09:09:19;6.13;;;3.50;;
54143;SDS011;40050;47.324;18.792;2023-06-10T09:11:20;4.25;;;3.30;;
54143;SDS011;40050;47.324;18.792;2023-06-10T09:13:24;4.26;;;3.50;;
54143;SDS011;40050;47.324;18.792;2023-06-10T09:15:25;6.03;;;3.30;;
54143;SDS011;40050;47.324;18.792;2023-06-10T09:17:26;5.34;;;3.30;;
54143;SDS011;40050;47.324;18.792;2023-06-10T09:19:29;4.45;;;3.60;;
54143;SDS011;40050;47.324;18.792;2023-06-10T09:21:28;6.52;;;3.60;;
54143;SDS011;40050;47.324;18.792;2023-06-10T09:23:30;4.05;;;3.50;;
54143;SDS011;40050;47.324;18.792;2023-06-10T09:25:38;4.34;;;3.60;;
54143;SDS011;40050;47.324;18.792;2023-06-10T09:27:44;3.65;;;3.30;;
54143;SDS011;40050;47.324;18.792;2023-06-10T09:29:47;4.63;;;3.50;;
54143;SDS011;40050;47.324;18.792;2023-06-10T09:31:43;3.95;;;3.60;;
54143;SDS011;40050;47.324;18.792;2023-06-10T09:33:44;5.43;;;3.80;;
54143;SDS011;40050;47.324;18.792;2023-06-10T09:35:46;4.45;;;3.30;;
54143;SDS011;40050;47.324;18.792;2023-06-10T09:37:54;3.06;;;2.40;;
54143;SDS011;40050;47.324;18.792;2023-06-10T09:40:01;3.15;;;2.20;;
54143;SDS011;40050;47.324;18.792;2023-06-10T09:42:17;4.92;;;2.40;;
54143;SDS011;40050;47.324;18.792;2023-06-10T09:44:13;3.83;;;2.20;;
54143;SDS011;40050;47.324;18.792;2023-06-10T09:46:15;4.22;;;2.79;;
54143;SDS011;40050;47.324;18.792;2023-06-10T09:48:17;4.51;;;2.99;;
54143;SDS011;40050;47.324;18.792;2023-06-10T09:50:18;3.13;;;2.89;;
54143;SDS011;40050;47.324;18.792;2023-06-10T09:52:28;5.19;;;3.09;;
54143;SDS011;40050;47.324;18.792;2023-06-10T09:54:31;4.21;;;3.09;;
54143;SDS011;40050;47.324;18.792;2023-06-10T09:56:34;3.91;;;2.79;;
54143;SDS011;40050;47.324;18.792;2023-06-10T09:58:38;3.13;;;2.69;;
54143;SDS011;40050;47.324;18.792;2023-06-10T10:00:42;3.90;;;2.79;;
54143;SDS011;40050;47.324;18.792;2023-06-10T10:02:52;4.10;;;3.19;;
54143;SDS011;40050;47.324;18.792;2023-06-10T10:04:55;4.88;;;3.69;;
54143;SDS011;40050;47.324;18.792;2023-06-10T10:06:55;8.69;;;3.69;;
54143;SDS011;40050;47.324;18.792;2023-06-10T10:08:56;4.68;;;3.39;;
54143;SDS011;40050;47.324;18.792;2023-06-10T10:10:57;4.69;;;3.59;;
54143;SDS011;40050;47.324;18.792;2023-06-10T10:12:58;5.86;;;3.69;;
54143;SDS011;40050;47.324;18.792;2023-06-10T10:15:02;4.68;;;3.79;;
54143;SDS011;40050;47.324;18.792;2023-06-10T10:17:11;4.00;;;3.39;;
54143;SDS011;40050;47.324;18.792;2023-06-10T10:19:18;4.49;;;3.19;;
54143;SDS011;40050;47.324;18.792;2023-06-10T10:21:24;4.68;;;2.79;;
54143;SDS011;40050;47.324;18.792;2023-06-10T10:24:09;3.51;;;2.49;;
54143;SDS011;40050;47.324;18.792;2023-06-10T10:25:30;3.61;;;2.49;;
54143;SDS011;40050;47.324;18.792;2023-06-10T10:29:51;2.53;;;2.39;;
54143;SDS011;40050;47.324;18.792;2023-06-10T10:31:53;3.11;;;2.19;;
54143;SDS011;40050;47.324;18.792;2023-06-10T10:33:58;3.30;;;2.19;;
54143;SDS011;40050;47.324;18.792;2023-06-10T10:35:58;3.89;;;2.49;;
54143;SDS011;40050;47.324;18.792;2023-06-10T10:38:00;2.43;;;2.29;;
54143;SDS011;40050;47.324;18.792;2023-06-10T10:40:01;3.11;;;2.09;;
54143;SDS011;40050;47.324;18.792;2023-06-10T10:42:03;3.12;;;2.39;;
54143;SDS011;40050;47.324;18.792;2023-06-10T10:44:10;2.92;;;2.69;;
54143;SDS011;40050;47.324;18.792;2023-06-10T10:46:12;3.01;;;2.59;;
54143;SDS011;40050;47.324;18.792;2023-06-10T10:48:08;3.59;;;2.59;;
54143;SDS011;40050;47.324;18.792;2023-06-10T10:50:15;3.30;;;2.49;;
54143;SDS011;40050;47.324;18.792;2023-06-10T10:52:21;3.30;;;2.59;;
54143;SDS011;40050;47.324;18.792;2023-06-10T10:54:45;2.72;;;2.49;;
54143;SDS011;40050;47.324;18.792;2023-06-10T10:59:42;4.56;;;2.59;;
54143;SDS011;40050;47.324;18.792;2023-06-10T11:01:21;4.75;;;3.09;;
54143;SDS011;40050;47.324;18.792;2023-06-10T11:03:16;5.34;;;2.89;;
54143;SDS011;40050;47.324;18.792;2023-06-10T11:05:18;5.63;;;2.89;;
54143;SDS011;40050;47.324;18.792;2023-06-10T11:07:25;5.93;;;2.89;;
54143;SDS011;40050;47.324;18.792;2023-06-10T11:09:28;11.56;;;4.18;;
54143;SDS011;40050;47.324;18.792;2023-06-10T11:11:27;4.96;;;2.79;;
54143;SDS011;40050;47.324;18.792;2023-06-10T11:13:27;3.31;;;2.79;;
54143;SDS011;40050;47.324;18.792;2023-06-10T11:15:30;5.26;;;2.69;;
54143;SDS011;40050;47.324;18.792;2023-06-10T11:17:31;3.90;;;2.79;;
54143;SDS011;40050;47.324;18.792;2023-06-10T11:19:32;4.18;;;2.69;;
54143;SDS011;40050;47.324;18.792;2023-06-10T11:21:58;8.08;;;2.79;;
54143;SDS011;40050;47.324;18.792;2023-06-10T11:23:38;4.29;;;2.89;;
54143;SDS011;40050;47.324;18.792;2023-06-10T11:25:44;3.41;;;2.69;;
54143;SDS011;40050;47.324;18.792;2023-06-10T11:27:54;2.92;;;2.69;;
54143;SDS011;40050;47.324;18.792;2023-06-10T11:31:57;3.13;;;2.39;;
54143;SDS011;40050;47.324;18.792;2023-06-10T11:33:59;4.40;;;2.69;;
54143;SDS011;40050;47.324;18.792;2023-06-10T11:36:00;3.62;;;2.69;;
54143;SDS011;40050;47.324;18.792;2023-06-10T11:38:01;2.84;;;2.49;;
54143;SDS011;40050;47.324;18.792;2023-06-10T11:40:02;3.13;;;2.29;;
54143;SDS011;40050;47.324;18.792;2023-06-10T11:42:03;4.03;;;3.19;;
54143;SDS011;40050;47.324;18.792;2023-06-10T11:44:12;3.83;;;2.79;;
54143;SDS011;40050;47.324;18.792;2023-06-10T11:46:06;3.63;;;2.80;;
54143;SDS011;40050;47.324;18.792;2023-06-10T11:48:09;2.95;;;2.70;;
54143;SDS011;40050;47.324;18.792;2023-06-10T11:50:09;3.34;;;2.79;;
54143;SDS011;40050;47.324;18.792;2023-06-10T11:52:10;3.63;;;2.50;;
54143;SDS011;40050;47.324;18.792;2023-06-10T11:54:11;3.24;;;2.60;;
54143;SDS011;40050;47.324;18.792;2023-06-10T11:56:23;2.56;;;2.40;;
54143;SDS011;40050;47.324;18.792;2023-06-10T11:58:17;4.04;;;2.70;;
54143;SDS011;40050;47.324;18.792;2023-06-10T12:00:17;3.85;;;2.70;;
54143;SDS011;40050;47.324;18.792;2023-06-10T12:02:21;3.15;;;2.90;;
54143;SDS011;40050;47.324;18.792;2023-06-10T12:04:27;2.57;;;2.40;;